Time,TemperatureF,DewpointF,PressureIn,WindDirection,WindDirectionDegrees,WindSpeedMPH,WindSpeedGustMPH,Humidity,HourlyPrecipIn,Conditions,Clouds,dailyrainin,SoftwareType,DateUTC
2013-10-31 07:55:00,61.3,60.2,29.58,South,173,3.0,6.0,96,0.00,,,0.49,Wunderground v.1.15,2013-10-31 12:55:00,
2013-10-31 08:00:00,61.3,60.2,29.58,SSE,155,3.0,3.0,96,0.00,,,0.50,Wunderground v.1.15,2013-10-31 13:00:00,
2013-10-31 08:10:00,61.2,60.1,29.58,SSE,158,3.0,3.0,96,0.00,,,0.50,Wunderground v.1.15,2013-10-31 13:10:00,
2013-10-31 08:20:00,61.2,60.3,29.58,South,173,3.0,3.0,97,0.00,,,0.50,Wunderground v.1.15,2013-10-31 13:20:00,
2013-10-31 08:30:00,61.2,60.3,29.58,SSE,152,3.0,3.0,97,0.00,,,0.51,Wunderground v.1.15,2013-10-31 13:30:00,
2013-10-31 08:40:00,61.1,60.2,29.58,SSW,212,3.0,7.0,97,0.05,,,0.52,Wunderground v.1.15,2013-10-31 13:40:00,
2013-10-31 08:45:00,61.1,60.2,29.57,South,188,3.0,7.0,97,0.06,,,0.53,Wunderground v.1.15,2013-10-31 13:45:00,
2013-10-31 08:55:00,61.1,60.2,29.57,South,174,3.0,7.0,97,0.06,,,0.53,Wunderground v.1.15,2013-10-31 13:55:00,
2013-10-31 09:00:00,61.0,60.1,29.56,SW,236,3.0,3.0,97,0.04,,,0.53,Wunderground v.1.15,2013-10-31 14:00:00,
2013-10-31 09:10:00,61.0,60.1,29.55,SSE,150,3.0,3.0,97,0.00,,,0.54,Wunderground v.1.15,2013-10-31 14:10:00,
2013-10-31 09:20:00,61.2,60.3,29.54,SSE,152,2.0,11.0,97,0.00,,,0.54,Wunderground v.1.15,2013-10-31 14:20:00,
2013-10-31 09:30:00,61.2,60.3,29.54,SW,217,2.0,2.0,97,0.00,,,0.54,Wunderground v.1.15,2013-10-31 14:30:00,
2013-10-31 09:35:00,61.2,60.3,29.54,SSE,160,2.0,11.0,97,0.00,,,0.54,Wunderground v.1.15,2013-10-31 14:35:00,
2013-10-31 09:45:00,61.2,60.1,29.53,SE,142,2.0,11.0,96,0.00,,,0.54,Wunderground v.1.15,2013-10-31 14:45:00,
2013-10-31 09:50:00,61.3,60.4,29.53,SW,215,2.0,11.0,97,0.00,,,0.54,Wunderground v.1.15,2013-10-31 14:50:00,
2013-10-31 10:00:00,61.4,60.5,29.52,South,179,2.0,2.0,97,0.00,,,0.54,Wunderground v.1.15,2013-10-31 15:00:00,
2013-10-31 10:10:00,61.6,60.7,29.51,SSE,152,2.0,9.0,97,0.00,,,0.55,Wunderground v.1.15,2013-10-31 15:10:00,
2013-10-31 10:20:00,61.8,60.6,29.51,South,191,3.0,3.0,96,0.00,,,0.55,Wunderground v.1.15,2013-10-31 15:20:00,
2013-10-31 10:25:00,62.1,61.2,29.51,South,178,3.0,4.0,97,0.00,,,0.56,Wunderground v.1.15,2013-10-31 15:25:00,
2013-10-31 10:35:00,62.2,61.0,29.50,SW,223,3.0,9.0,96,0.00,,,0.56,Wunderground v.1.15,2013-10-31 15:35:00,
2013-10-31 10:40:00,62.4,61.2,29.50,SSE,154,4.0,9.0,96,0.00,,,0.56,Wunderground v.1.15,2013-10-31 15:40:00,
2013-10-31 10:50:00,62.8,61.6,29.49,SSW,210,2.0,9.0,96,0.00,,,0.56,Wunderground v.1.15,2013-10-31 15:50:00,
2013-10-31 10:55:00,63.0,61.8,29.48,South,190,3.0,9.0,96,0.00,,,0.56,Wunderground v.1.15,2013-10-31 15:55:00,
2013-10-31 11:00:00,63.2,61.7,29.48,SSE,161,3.0,3.0,95,0.00,,,0.56,Wunderground v.1.15,2013-10-31 16:00:00,
2013-10-31 11:10:00,63.0,61.5,29.48,South,171,2.0,7.0,95,0.00,,,0.56,Wunderground v.1.15,2013-10-31 16:10:00,
2013-10-31 11:20:00,62.8,61.3,29.47,SW,223,3.0,6.0,95,0.00,,,0.56,Wunderground v.1.15,2013-10-31 16:20:00,
2013-10-31 11:30:00,62.5,61.0,29.46,South,170,2.0,2.0,95,0.00,,,0.57,Wunderground v.1.15,2013-10-31 16:30:00,
2013-10-31 11:35:00,62.4,61.2,29.46,South,176,2.0,6.0,96,0.00,,,0.57,Wunderground v.1.15,2013-10-31 16:35:00,
2013-10-31 11:45:00,62.1,60.9,29.45,SSE,151,1.0,6.0,96,0.00,,,0.57,Wunderground v.1.15,2013-10-31 16:45:00,
2013-10-31 11:55:00,62.0,60.8,29.45,South,172,1.0,6.0,96,0.09,,,0.59,Wunderground v.1.15,2013-10-31 16:55:00,
2013-10-31 12:00:00,61.9,60.7,29.44,South,172,1.0,2.0,96,0.12,,,0.60,Wunderground v.1.15,2013-10-31 17:00:00,
2013-10-31 12:10:00,61.8,60.6,29.43,South,188,2.0,2.0,96,0.13,,,0.62,Wunderground v.1.15,2013-10-31 17:10:00,
2013-10-31 12:20:00,61.8,60.9,29.42,South,172,1.0,10.0,97,0.13,,,0.64,Wunderground v.1.15,2013-10-31 17:20:00,
2013-10-31 12:25:00,61.8,60.9,29.42,SSE,162,1.0,10.0,97,0.19,,,0.65,Wunderground v.1.15,2013-10-31 17:25:00,
2013-10-31 12:35:00,62.0,61.1,29.41,SSE,160,2.0,10.0,97,0.14,,,0.67,Wunderground v.1.15,2013-10-31 17:35:00,
2013-10-31 12:40:00,61.9,61.0,29.40,SSW,208,1.0,10.0,97,0.12,,,0.68,Wunderground v.1.15,2013-10-31 17:40:00,
2013-10-31 12:50:00,61.8,60.9,29.39,SSE,148,1.0,1.0,97,0.22,,,0.71,Wunderground v.1.15,2013-10-31 17:50:00,
2013-10-31 13:00:00,61.8,60.6,29.38,WSW,249,1.0,2.0,96,0.09,,,0.73,Wunderground v.1.15,2013-10-31 18:00:00,
2013-10-31 13:10:00,61.4,60.2,29.37,SSW,197,2.0,8.0,96,0.31,,,0.76,Wunderground v.1.15,2013-10-31 18:10:00,
2013-10-31 13:15:00,61.3,60.2,29.36,SW,232,2.0,8.0,96,0.27,,,0.78,Wunderground v.1.15,2013-10-31 18:15:00,
2013-10-31 13:25:00,61.1,60.2,29.35,SSW,197,2.0,8.0,97,0.27,,,0.82,Wunderground v.1.15,2013-10-31 18:25:00,
2013-10-31 13:30:00,61.0,60.1,29.34,SSE,161,2.0,2.0,97,0.18,,,0.84,Wunderground v.1.15,2013-10-31 18:30:00,